Time;durP1;ratioP1;P1;durP2;ratioP2;P2;SDS_P1;SDS_P2;PMS_P1;PMS_P2;Temp;Humidity;BMP_temperature;BMP_pressure;BME280_temperature;BME280_humidity;BME280_pressure;Samples;Min_cycle;Max_cycle;Signal;HPM_P1;HPM_P2
2022/05/05 00:01:55;;;;;;;0.20;0.20;;;;;;;14.22;68.66;100495.91;6221153;23;20087;-71
2022/05/05 00:04:22;;;;;;;0.20;0.20;;;;;;;14.27;68.73;100491.94;6221676;23;20008;-71
2022/05/05 00:06:51;;;;;;;0.20;0.20;;;;;;;14.21;68.68;100490.66;6248155;23;20014;-70
2022/05/05 00:09:17;;;;;;;0.20;0.20;;;;;;;14.19;68.71;100487.44;6220737;23;20008;-72
2022/05/05 00:14:31;;;;;;;;;;;;;;;14.21;67.15;100487.88;6248762;23;20031;-72
2022/05/05 00:17:01;;;;;;;0.20;0.20;;;;;;;14.14;67.26;100481.00;6220996;23;19953;-70
2022/05/05 00:19:29;;;;;;;0.20;0.20;;;;;;;14.10;67.35;100482.13;6220811;23;20437;-71
2022/05/05 00:21:55;;;;;;;0.20;0.20;;;;;;;14.29;66.92;100484.78;6221229;23;20503;-70
2022/05/05 00:24:20;;;;;;;0.20;0.20;;;;;;;14.16;66.95;100483.41;6221338;23;20004;-72
2022/05/05 00:26:46;;;;;;;0.20;0.20;;;;;;;14.08;67.67;100484.50;6220369;23;20323;-71
2022/05/05 00:29:12;;;;;;;0.20;0.20;;;;;;;14.05;67.97;100477.66;6220768;23;20093;-71
2022/05/05 00:31:38;;;;;;;0.20;0.20;;;;;;;14.00;68.01;100483.59;6220167;23;20020;-71
2022/05/05 00:34:04;;;;;;;0.20;0.20;;;;;;;13.93;68.44;100485.50;6247613;23;20495;-71
2022/05/05 00:36:29;;;;;;;0.20;0.20;;;;;;;14.00;67.99;100480.78;6220678;23;20012;-71
2022/05/05 00:39:01;;;;;;;0.20;0.20;;;;;;;13.94;68.10;100479.50;6220663;23;20111;-71
2022/05/05 00:41:26;;;;;;;0.20;0.20;;;;;;;13.88;68.08;100469.84;6221095;23;20065;-71
2022/05/05 00:43:52;;;;;;;0.20;0.20;;;;;;;13.84;68.72;100471.78;6220993;23;20358;-71
2022/05/05 00:46:18;;;;;;;0.20;0.20;;;;;;;13.85;68.55;100476.22;6221340;23;20367;-71
2022/05/05 00:48:43;;;;;;;0.20;0.20;;;;;;;13.76;68.45;100462.50;6221081;23;20325;-70
2022/05/05 00:51:10;;;;;;;0.20;0.20;;;;;;;13.83;68.44;100472.97;6220819;23;20066;-71
2022/05/05 00:53:36;;;;;;;0.20;0.20;;;;;;;13.88;68.12;100472.63;6249114;23;20011;-72
2022/05/05 00:56:11;;;;;;;0.20;0.20;;;;;;;13.79;68.53;100467.31;6220684;23;20043;-71
2022/05/05 00:58:37;;;;;;;0.20;0.20;;;;;;;13.71;68.78;100465.63;6170983;23;20083;-71
2022/05/05 01:01:05;;;;;;;0.20;0.20;;;;;;;13.73;69.04;100457.66;6221568;23;20014;-71
2022/05/05 01:03:35;;;;;;;0.20;0.20;;;;;;;13.77;68.62;100461.31;6220940;23;20012;-71
2022/05/05 01:06:08;;;;;;;0.20;0.20;;;;;;;13.77;68.91;100474.47;6220512;23;20000;-71
2022/05/05 01:08:34;;;;;;;0.20;0.20;;;;;;;13.88;68.49;100458.66;6247434;23;20417;-71
2022/05/05 01:11:00;;;;;;;0.20;0.20;;;;;;;13.86;68.68;100461.03;6220946;23;20004;-70
2022/05/05 01:13:27;;;;;;;0.20;0.20;;;;;;;13.82;68.74;100454.59;6220795;23;20091;-71
2022/05/05 01:15:53;;;;;;;0.20;0.20;;;;;;;13.95;68.41;100461.53;6221170;23;20425;-71
2022/05/05 01:18:19;;;;;;;0.20;0.20;;;;;;;13.93;68.22;100458.31;6220502;23;20061;-70
2022/05/05 01:20:47;;;;;;;0.20;0.20;;;;;;;13.90;68.09;100459.06;6220314;23;20028;-70
2022/05/05 01:23:16;;;;;;;0.20;0.20;;;;;;;13.82;68.38;100457.38;6220472;23;20036;-70
2022/05/05 01:28:28;;;;;;;0.20;0.20;;;;;;;13.62;68.91;100451.91;6248317;23;20110;-70
2022/05/05 01:30:53;;;;;;;0.20;0.20;;;;;;;13.67;68.56;100447.97;6215025;23;20319;-71
2022/05/05 01:33:21;;;;;;;0.20;0.20;;;;;;;13.68;68.77;100451.56;6215308;23;20015;-71
2022/05/05 01:35:53;;;;;;;0.20;0.20;;;;;;;13.66;68.31;100456.75;6215628;23;20437;-72
2022/05/05 01:38:20;;;;;;;0.20;0.20;;;;;;;13.71;67.76;100456.41;6217202;23;20009;-71
2022/05/05 01:40:46;;;;;;;0.20;0.20;;;;;;;13.73;67.42;100451.25;6191639;23;20036;-71
2022/05/05 01:43:16;;;;;;;0.20;0.20;;;;;;;13.81;67.55;100447.38;6190683;23;20055;-71
2022/05/05 01:45:43;;;;;;;0.20;0.20;;;;;;;13.82;67.21;100460.19;6215169;23;20008;-71
2022/05/05 01:48:09;;;;;;;0.20;0.20;;;;;;;13.74;67.29;100452.84;6215844;23;20020;-70
2022/05/05 01:50:37;;;;;;;0.20;0.20;;;;;;;13.69;67.40;100454.00;6215088;23;20016;-71
2022/05/05 01:53:04;;;;;;;0.20;0.20;;;;;;;13.66;68.56;100468.72;6215484;23;20400;-71
2022/05/05 01:55:32;;;;;;;0.20;0.20;;;;;;;13.65;67.57;100477.50;6215037;23;20104;-70
2022/05/05 01:58:02;;;;;;;0.20;0.20;;;;;;;13.43;67.90;100446.44;6215032;23;20001;-70
2022/05/05 02:00:30;;;;;;;0.20;0.20;;;;;;;13.67;67.40;100469.53;6214934;23;20505;-71
2022/05/05 02:02:56;;;;;;;0.20;0.20;;;;;;;13.63;67.41;100459.13;6214981;23;20004;-71
2022/05/05 02:05:22;;;;;;;0.20;0.20;;;;;;;13.60;67.79;100453.47;6216580;23;20005;-71
2022/05/05 02:07:48;;;;;;;0.20;0.20;;;;;;;13.56;67.87;100453.41;6214927;23;20341;-71
2022/05/05 02:10:16;;;;;;;0.20;0.20;;;;;;;13.56;67.61;100447.81;6215568;23;20001;-71
2022/05/05 02:12:44;;;;;;;0.20;0.20;;;;;;;13.52;66.87;100452.53;6190197;23;20004;-71
2022/05/05 02:15:11;;;;;;;0.20;0.20;;;;;;;13.38;66.24;100460.72;6214827;23;20035;-71
2022/05/05 02:17:37;;;;;;;0.20;0.20;;;;;;;13.36;66.50;100460.28;6215148;23;20019;-71
2022/05/05 02:20:05;;;;;;;0.20;0.20;;;;;;;13.38;66.15;100457.13;6214680;23;20015;-70
2022/05/05 02:22:31;;;;;;;0.20;0.20;;;;;;;13.47;65.80;100464.03;6210791;23;20019;-71
2022/05/05 02:24:57;;;;;;;0.20;0.20;;;;;;;13.43;65.67;100454.00;6215206;23;20423;-71
2022/05/05 02:27:23;;;;;;;0.20;0.20;;;;;;;13.29;66.32;100451.78;6215107;23;20095;-71
2022/05/05 02:29:49;;;;;;;0.20;0.20;;;;;;;13.43;66.11;100449.22;6219478;23;20016;-71
2022/05/05 02:32:16;;;;;;;0.20;0.20;;;;;;;13.33;65.76;100439.50;6219830;23;20058;-71
2022/05/05 02:34:42;;;;;;;0.20;0.20;;;;;;;13.33;66.22;100438.69;6194953;23;20032;-71
2022/05/05 02:39:52;;;;;;;;;;;;;;;13.46;65.19;100442.06;6247186;23;20329;-71
2022/05/05 02:42:17;;;;;;;0.20;0.20;;;;;;;13.48;65.09;100448.09;6219694;23;19907;-71
2022/05/05 02:44:44;;;;;;;0.20;0.20;;;;;;;13.51;64.52;100445.34;6220444;23;20067;-71
2022/05/05 02:47:10;;;;;;;0.20;0.20;;;;;;;13.33;64.96;100438.69;6219789;23;20031;-71
2022/05/05 02:49:36;;;;;;;0.20;0.20;;;;;;;13.41;64.47;100445.19;6220365;23;20005;-71
2022/05/05 02:52:07;;;;;;;0.20;0.20;;;;;;;13.41;64.51;100445.97;6223165;23;20070;-72
2022/05/05 02:54:50;;;;;;;0.20;0.20;;;;;;;13.39;64.60;100431.59;6194639;23;20506;-72
2022/05/05 02:57:18;;;;;;;0.20;0.20;;;;;;;13.48;64.85;100439.72;6251547;23;20656;-71
2022/05/05 02:59:44;;;;;;;0.20;0.20;;;;;;;13.35;65.00;100437.13;6224522;23;20043;-71
2022/05/05 03:02:10;;;;;;;0.20;0.20;;;;;;;13.47;64.79;100433.28;6223909;23;20047;-71
2022/05/05 03:04:35;;;;;;;0.20;0.20;;;;;;;13.44;64.88;100434.06;6224124;23;20004;-71
2022/05/05 03:07:01;;;;;;;0.20;0.20;;;;;;;13.37;65.12;100428.38;6224211;23;20058;-70
2022/05/05 03:09:27;;;;;;;0.20;0.20;;;;;;;13.39;65.00;100437.19;6224611;23;20015;-71
2022/05/05 03:11:52;;;;;;;0.20;0.20;;;;;;;13.31;64.66;100435.44;6224476;23;20008;-71
2022/05/05 03:14:20;;;;;;;0.20;0.20;;;;;;;13.36;65.15;100447.09;6223116;23;20043;-72
2022/05/05 03:16:46;;;;;;;0.20;0.20;;;;;;;13.30;64.49;100450.59;6222906;23;20095;-71
2022/05/05 03:19:12;;;;;;;0.20;0.20;;;;;;;13.30;64.09;100456.19;6223501;23;20000;-71
2022/05/05 03:21:37;;;;;;;0.20;0.20;;;;;;;13.39;63.14;100453.94;6198125;23;20008;-71
2022/05/05 03:24:04;;;;;;;0.20;0.20;;;;;;;13.28;62.97;100452.97;6222987;23;20012;-71
2022/05/05 03:26:30;;;;;;;0.20;0.20;;;;;;;13.23;63.31;100450.50;6198162;23;20008;-71
2022/05/05 03:28:56;;;;;;;0.20;0.20;;;;;;;13.15;63.31;100443.94;6223718;23;20015;-71
2022/05/05 03:31:22;;;;;;;0.20;0.20;;;;;;;13.22;62.84;100448.88;6197724;23;20357;-70
2022/05/05 03:33:48;;;;;;;0.20;0.20;;;;;;;13.22;62.63;100448.88;6224823;23;20008;-72
2022/05/05 03:36:13;;;;;;;0.20;0.20;;;;;;;13.14;62.72;100441.53;6223530;23;20004;-71
2022/05/05 03:38:39;;;;;;;0.20;0.20;;;;;;;13.14;62.92;100450.72;6222719;23;20031;-71
2022/05/05 03:41:05;;;;;;;0.20;0.20;;;;;;;13.03;62.47;100442.16;6222824;23;20066;-70
2022/05/05 03:43:32;;;;;;;0.20;0.20;;;;;;;13.08;62.28;100444.63;6223559;23;20083;-71
2022/05/05 03:45:58;;;;;;;0.20;0.20;;;;;;;13.03;62.33;100453.31;6198065;23;20020;-71
2022/05/05 03:48:23;;;;;;;0.20;0.20;;;;;;;13.05;62.12;100450.97;6222928;23;20368;-71
2022/05/05 03:50:49;;;;;;;0.20;0.20;;;;;;;13.02;62.16;100440.53;6223905;23;20008;-72
2022/05/05 03:53:18;;;;;;;0.20;0.20;;;;;;;13.05;62.06;100445.41;6224118;23;20008;-71
2022/05/05 03:55:43;;;;;;;0.20;0.20;;;;;;;13.14;61.13;100452.69;6222764;23;20091;-71
2022/05/05 03:58:09;;;;;;;0.20;0.20;;;;;;;13.15;61.16;100459.91;6222419;23;20050;-71
2022/05/05 04:00:35;;;;;;;0.20;0.20;;;;;;;13.21;60.63;100459.25;6222592;23;20087;-70
2022/05/05 04:05:44;;;;;;;0.20;0.20;;;;;;;13.38;60.21;100459.91;6248487;23;20023;-70
2022/05/05 04:08:10;;;;;;;0.20;0.20;;;;;;;13.46;59.32;100459.63;6221203;23;20425;-70
2022/05/05 04:10:35;;;;;;;0.20;0.20;;;;;;;13.54;58.69;100463.38;6221246;23;20035;-70
2022/05/05 04:13:01;;;;;;;0.20;0.20;;;;;;;13.42;59.09;100453.19;6221230;23;20012;-70
2022/05/05 04:15:30;;;;;;;0.20;0.20;;;;;;;13.41;59.90;100465.53;6221346;23;20011;-70
2022/05/05 04:17:56;;;;;;;0.20;0.20;;;;;;;13.49;60.07;100467.28;6221122;23;20011;-70
2022/05/05 04:20:21;;;;;;;0.20;0.20;;;;;;;13.63;58.92;100459.13;6220982;23;20004;-70
2022/05/05 04:22:47;;;;;;;0.20;0.20;;;;;;;13.70;58.82;100463.19;6221077;23;20008;-70
2022/05/05 04:25:13;;;;;;;0.20;0.20;;;;;;;13.80;59.03;100468.16;6220947;23;20084;-70
2022/05/05 04:27:41;;;;;;;0.20;0.20;;;;;;;13.77;58.48;100454.91;6221037;23;20003;-70
2022/05/05 04:30:09;;;;;;;0.20;0.20;;;;;;;13.80;58.45;100463.34;6220640;23;20054;-70
2022/05/05 04:32:36;;;;;;;0.20;0.20;;;;;;;13.75;58.20;100469.28;6220642;23;20011;-71
2022/05/05 04:35:02;;;;;;;0.20;0.20;;;;;;;13.77;58.31;100474.47;6220924;23;20039;-70
2022/05/05 04:37:28;;;;;;;0.20;0.20;;;;;;;13.72;58.50;100458.03;6220862;23;20012;-70
2022/05/05 04:39:54;;;;;;;0.20;0.20;;;;;;;13.50;58.63;100438.16;6220624;23;20011;-70
2022/05/05 04:42:20;;;;;;;0.20;0.20;;;;;;;13.65;58.70;100466.31;6195948;23;20089;-70
2022/05/05 04:44:45;;;;;;;0.20;0.20;;;;;;;13.63;58.66;100447.09;6221034;23;20008;-71
2022/05/05 04:47:11;;;;;;;0.20;0.20;;;;;;;13.68;58.86;100451.56;6221075;23;20012;-70
2022/05/05 04:49:38;;;;;;;0.20;0.20;;;;;;;13.73;58.81;100454.84;6221062;23;20078;-70
2022/05/05 04:52:04;;;;;;;0.20;0.20;;;;;;;13.76;58.84;100456.09;6221193;23;20309;-71
2022/05/05 04:54:30;;;;;;;0.20;0.20;;;;;;;13.80;58.59;100462.56;6220446;23;20011;-70
2022/05/05 04:56:55;;;;;;;0.20;0.20;;;;;;;13.74;58.41;100445.31;6220421;23;20008;-72
2022/05/05 04:59:21;;;;;;;0.20;0.20;;;;;;;13.87;58.54;100445.88;6220380;23;20015;-72
2022/05/05 05:01:48;;;;;;;0.20;0.20;;;;;;;13.98;58.25;100460.00;6246903;23;20035;-72
2022/05/05 05:04:13;;;;;;;0.20;0.20;;;;;;;14.02;58.10;100467.25;6220254;23;20004;-71
2022/05/05 05:06:39;;;;;;;0.20;0.20;;;;;;;14.09;58.01;100458.94;6221065;23;20014;-70
2022/05/05 05:09:05;;;;;;;0.20;0.20;;;;;;;14.16;57.93;100447.81;6220726;23;20062;-72
2022/05/05 05:11:30;;;;;;;0.20;0.20;;;;;;;14.22;57.33;100450.28;6220320;23;20085;-71
2022/05/05 05:13:56;;;;;;;0.20;0.20;;;;;;;14.31;57.42;100470.41;6220272;23;20012;-72
2022/05/05 05:16:22;;;;;;;0.20;0.20;;;;;;;14.38;57.36;100478.88;6220675;23;20444;-72
2022/05/05 05:18:50;;;;;;;0.20;0.20;;;;;;;14.42;56.70;100483.34;6220475;23;20020;-71
2022/05/05 05:21:15;;;;;;;0.20;0.20;;;;;;;14.46;56.39;100483.38;6220263;23;20456;-72
2022/05/05 05:23:41;;;;;;;0.20;0.20;;;;;;;14.37;56.06;100480.88;6220555;23;20008;-71
2022/05/05 05:26:07;;;;;;;0.20;0.20;;;;;;;14.38;57.56;100478.88;6220078;23;20385;-72
2022/05/05 05:28:32;;;;;;;0.20;0.20;;;;;;;14.47;57.73;100504.63;6220018;23;20015;-71
2022/05/05 05:30:58;;;;;;;0.20;0.20;;;;;;;14.59;57.14;100509.97;6220322;23;20024;-72
2022/05/05 05:33:23;;;;;;;0.20;0.20;;;;;;;14.76;56.83;100516.19;6219963;23;20007;-71
2022/05/05 05:35:51;;;;;;;0.20;0.20;;;;;;;14.77;56.34;100514.97;6219746;23;20485;-71
2022/05/05 05:38:20;;;;;;;0.20;0.20;;;;;;;14.83;56.57;100524.66;6219385;23;20099;-72
2022/05/05 05:40:49;;;;;;;0.20;0.20;;;;;;;14.89;56.87;100521.09;6220661;23;20122;-73
2022/05/05 05:43:15;;;;;;;0.20;0.20;;;;;;;14.90;56.23;100514.31;6220030;23;20008;-71
2022/05/05 05:45:41;;;;;;;0.20;0.20;;;;;;;14.96;56.54;100527.97;6220584;23;20086;-71
2022/05/05 05:48:06;;;;;;;0.20;0.20;;;;;;;15.14;54.95;100524.16;6219903;23;20036;-72
2022/05/05 05:50:33;;;;;;;0.20;0.20;;;;;;;15.12;55.02;100523.72;6220593;23;20033;-71
2022/05/05 05:52:59;;;;;;;0.20;0.20;;;;;;;15.19;54.68;100525.81;6219836;23;20015;-71
2022/05/05 05:55:25;;;;;;;0.20;0.20;;;;;;;15.50;53.58;100534.88;6219847;23;20015;-72
2022/05/05 05:57:51;;;;;;;0.20;0.20;;;;;;;15.44;54.00;100526.03;6220075;23;20491;-71
2022/05/05 06:00:17;;;;;;;0.20;0.20;;;;;;;15.55;53.18;100526.91;6219840;23;20008;-71
2022/05/05 06:05:27;;;;;;;0.20;0.20;;;;;;;15.71;55.60;100524.69;6248567;23;20099;-71
2022/05/05 06:07:58;;;;;;;0.20;0.20;;;;;;;15.68;55.65;100524.66;6220923;23;20095;-72
2022/05/05 06:10:24;;;;;;;0.20;0.20;;;;;;;15.65;55.75;100526.22;6220759;23;20004;-71
2022/05/05 06:12:49;;;;;;;0.20;0.20;;;;;;;15.71;56.13;100519.09;6220019;23;20457;-72
2022/05/05 06:15:15;;;;;;;0.20;0.20;;;;;;;15.69;55.92;100518.66;6220230;23;20448;-72
2022/05/05 06:17:40;;;;;;;0.20;0.20;;;;;;;15.77;55.94;100510.31;6219572;23;20437;-71
2022/05/05 06:20:06;;;;;;;0.20;0.20;;;;;;;15.86;55.92;100496.72;6219573;23;20008;-70
2022/05/05 06:22:34;;;;;;;0.20;0.20;;;;;;;15.66;56.80;100499.81;6220087;23;20087;-70
2022/05/05 06:25:00;;;;;;;0.20;0.20;;;;;;;15.56;55.89;100499.72;6219544;23;20008;-70
2022/05/05 06:27:26;;;;;;;0.20;0.20;;;;;;;15.68;54.84;100508.63;6219888;23;20007;-70
2022/05/05 06:29:52;;;;;;;0.20;0.20;;;;;;;15.78;55.61;100495.06;6219654;23;20020;-70
2022/05/05 06:32:17;;;;;;;0.20;0.20;;;;;;;15.73;54.85;100490.63;6220101;23;20337;-70
2022/05/05 06:34:44;;;;;;;0.20;0.20;;;;;;;15.79;53.93;100485.47;6247226;23;20105;-71
2022/05/05 06:37:10;;;;;;;0.20;0.20;;;;;;;15.86;53.52;100480.69;6219495;23;20064;-70
2022/05/05 06:39:36;;;;;;;0.20;0.20;;;;;;;15.96;52.81;100474.34;6220173;23;20014;-70
2022/05/05 06:42:01;;;;;;;0.20;0.20;;;;;;;16.00;51.96;100463.13;6220313;23;20024;-71
2022/05/05 06:44:27;;;;;;;0.20;0.20;;;;;;;16.18;52.16;100480.06;6219639;23;20012;-72
2022/05/05 06:46:54;;;;;;;0.20;0.20;;;;;;;16.25;51.08;100463.25;6220143;23;20008;-71
2022/05/05 06:49:22;;;;;;;0.20;0.20;;;;;;;16.52;51.23;100465.78;6246070;23;20009;-70
2022/05/05 06:51:49;;;;;;;0.20;0.20;;;;;;;16.73;50.63;100460.25;6219274;23;20382;-70
2022/05/05 06:54:14;;;;;;;0.20;0.20;;;;;;;16.83;50.82;100461.44;6219425;23;20035;-71
2022/05/05 06:56:40;;;;;;;0.20;0.20;;;;;;;16.87;50.73;100460.25;6219020;23;20008;-72
2022/05/05 06:59:05;;;;;;;0.20;0.20;;;;;;;17.04;50.65;100458.66;6219151;23;20058;-71
2022/05/05 07:06:58;;;;;;;0.20;0.20;;;;;;;17.40;47.69;100447.41;6246389;23;19958;-71
2022/05/05 07:12:09;;;;;;;0.20;0.20;;;;;;;17.70;45.90;100439.34;6246534;23;20495;-72
2022/05/05 07:14:35;;;;;;;0.20;0.20;;;;;;;17.86;45.22;100453.00;6219361;23;20004;-71
2022/05/05 07:17:03;;;;;;;0.20;0.20;;;;;;;17.86;46.10;100443.75;6219649;23;20015;-71
2022/05/05 07:19:28;;;;;;;0.20;0.20;;;;;;;17.67;49.58;100423.25;6219927;23;20034;-71
2022/05/05 07:21:54;;;;;;;0.20;0.20;;;;;;;17.61;50.43;100424.88;6219265;23;20337;-71
2022/05/05 07:24:19;;;;;;;0.20;0.20;;;;;;;17.56;51.79;100416.84;6219213;23;20077;-71
2022/05/05 07:26:45;;;;;;;0.20;0.20;;;;;;;17.35;55.91;100419.69;6219809;23;20000;-71
2022/05/05 07:29:10;;;;;;;0.20;0.20;;;;;;;17.56;55.68;100419.66;6219311;23;20489;-71
2022/05/05 07:31:36;;;;;;;0.20;0.20;;;;;;;17.68;52.51;100401.56;6218620;23;20024;-70
2022/05/05 07:34:02;;;;;;;0.20;0.20;;;;;;;18.30;50.56;100427.09;6219768;23;20410;-71
2022/05/05 07:36:27;;;;;;;0.20;0.20;;;;;;;18.72;51.36;100436.56;6219892;23;20376;-70
2022/05/05 07:38:53;;;;;;;0.20;0.20;;;;;;;18.89;49.97;100422.75;6221012;23;20015;-71
2022/05/05 07:41:19;;;;;;;0.20;0.20;;;;;;;19.37;49.06;100443.31;6221147;23;20004;-71
2022/05/05 07:43:44;;;;;;;0.20;0.20;;;;;;;19.32;48.56;100454.22;6221165;23;20012;-72
2022/05/05 07:46:10;;;;;;;0.20;0.20;;;;;;;19.36;47.15;100441.69;6221307;23;20011;-71
2022/05/05 07:48:35;;;;;;;0.20;0.20;;;;;;;19.93;45.99;100426.25;6221816;23;20011;-70
2022/05/05 07:51:01;;;;;;;0.20;0.20;;;;;;;20.30;43.51;100462.13;6196324;23;20044;-71
2022/05/05 07:53:27;;;;;;;0.20;0.20;;;;;;;20.28;42.99;100456.06;6221686;23;20374;-71
2022/05/05 07:55:52;;;;;;;0.20;0.20;;;;;;;20.71;41.06;100466.84;6220963;23;20430;-71
2022/05/05 07:58:18;;;;;;;0.13;0.13;;;;;;;21.05;39.41;100463.13;6221230;23;20004;-71
2022/05/05 08:00:43;;;;;;;0.20;0.20;;;;;;;20.79;39.66;100474.00;6220520;23;20031;-71
2022/05/05 08:03:09;;;;;;;0.20;0.20;;;;;;;20.92;40.56;100475.00;6220697;23;20087;-72
2022/05/05 08:05:37;;;;;;;0.20;0.20;;;;;;;21.54;39.37;100477.72;6220484;23;20012;-71
2022/05/05 08:08:04;;;;;;;0.20;0.20;;;;;;;21.88;39.13;100485.97;6247194;23;20012;-72
2022/05/05 08:10:31;;;;;;;0.20;0.20;;;;;;;23.10;37.27;100496.44;6220761;23;20016;-72
2022/05/05 08:12:59;;;;;;;0.20;0.20;;;;;;;23.60;36.91;100483.84;6220508;23;20004;-71
2022/05/05 08:15:24;;;;;;;0.20;0.20;;;;;;;23.25;35.97;100479.84;6220199;23;20099;-72
2022/05/05 08:17:50;;;;;;;0.10;0.10;;;;;;;23.70;35.48;100499.84;6220739;23;20154;-71
2022/05/05 08:20:16;;;;;;;0.10;0.10;;;;;;;24.64;33.90;100506.59;6220304;23;20009;-72
2022/05/05 08:22:42;;;;;;;0.10;0.10;;;;;;;25.45;32.38;100511.78;6221227;23;20008;-71
2022/05/05 08:30:38;;;;;;;0.10;0.10;;;;;;;24.73;27.80;100523.81;6246957;23;20027;-71
2022/05/05 08:33:04;;;;;;;0.10;0.10;;;;;;;24.26;31.63;100525.13;6221279;23;20012;-71
2022/05/05 08:35:31;;;;;;;0.20;0.20;;;;;;;24.58;30.15;100528.31;6220647;23;20012;-71
2022/05/05 08:37:57;;;;;;;0.10;0.10;;;;;;;24.72;29.43;100527.91;6196063;23;20374;-71
2022/05/05 08:40:24;;;;;;;0.10;0.10;;;;;;;24.40;30.30;100537.38;6220276;23;20015;-71
2022/05/05 08:42:50;;;;;;;0.10;0.10;;;;;;;24.31;30.55;100538.00;6220866;23;20483;-71
2022/05/05 08:45:16;;;;;;;0.10;0.10;;;;;;;24.14;30.91;100527.91;6220528;23;20302;-73
2022/05/05 08:47:45;;;;;;;0.10;0.10;;;;;;;23.37;32.28;100544.44;6219966;23;20019;-72
2022/05/05 08:50:11;;;;;;;0.20;0.20;;;;;;;23.30;32.15;100533.28;6195179;23;20019;-73
2022/05/05 08:52:45;;;;;;;0.17;0.17;;;;;;;23.30;32.62;100538.94;6220864;23;20008;-73
2022/05/05 08:55:18;;;;;;;0.10;0.10;;;;;;;23.31;33.01;100539.75;6220586;23;20310;-72
2022/05/05 08:57:44;;;;;;;0.10;0.10;;;;;;;23.30;32.97;100536.09;6247453;23;20011;-73
2022/05/05 09:00:11;;;;;;;0.10;0.10;;;;;;;23.14;32.31;100538.94;6219139;23;20074;-72
2022/05/05 09:02:40;;;;;;;0.10;0.10;;;;;;;22.67;33.01;100539.09;6219870;23;20074;-70
2022/05/05 09:05:09;;;;;;;0.10;0.10;;;;;;;22.48;32.62;100527.34;6219954;23;20070;-71
2022/05/05 09:07:53;;;;;;;0.20;0.20;;;;;;;22.56;32.76;100530.03;6195120;23;20019;-72
2022/05/05 09:10:20;;;;;;;0.10;0.10;;;;;;;22.53;32.38;100530.91;6220142;23;20008;-71
2022/05/05 09:12:57;;;;;;;0.10;0.10;;;;;;;22.42;31.61;100528.28;6220088;23;20012;-71
2022/05/05 09:15:30;;;;;;;0.20;0.20;;;;;;;22.85;31.82;100524.53;6219985;23;20007;-72
2022/05/05 09:17:55;;;;;;;;;;;;;;;22.72;32.21;100521.59;6220577;23;20499;-71
2022/05/05 09:20:34;;;;;;;0.17;0.17;;;;;;;23.12;31.65;100516.66;6219659;23;19907;-72
2022/05/05 09:23:00;;;;;;;0.10;0.10;;;;;;;23.41;31.12;100508.25;6219996;23;20003;-71
2022/05/05 09:25:44;;;;;;;0.10;0.10;;;;;;;22.90;32.21;100516.34;6219950;23;20070;-71
2022/05/05 09:28:21;;;;;;;0.10;0.10;;;;;;;22.97;32.25;100515.41;6219810;23;20425;-71
2022/05/05 09:30:49;;;;;;;0.20;0.20;;;;;;;23.36;32.31;100503.09;6214386;23;20055;-71
2022/05/05 09:33:33;;;;;;;0.10;0.10;;;;;;;23.31;32.06;100505.69;6214972;23;20008;-73
2022/05/05 09:36:02;;;;;;;0.10;0.10;;;;;;;23.03;32.42;100512.84;6215688;23;20430;-71
2022/05/05 09:39:08;;;;;;;0.10;0.10;;;;;;;23.03;32.19;100513.63;6215152;23;20063;-72
2022/05/05 09:41:43;;;;;;;0.10;0.10;;;;;;;23.21;32.14;100508.31;6214802;23;20011;-71
2022/05/05 09:44:20;;;;;;;0.10;0.10;;;;;;;23.16;32.59;100505.22;6215065;23;20016;-70
2022/05/05 09:46:46;;;;;;;0.20;0.20;;;;;;;23.21;32.28;100493.34;6215584;23;20012;-71
2022/05/05 09:49:21;;;;;;;0.17;0.17;;;;;;;23.25;33.15;100500.53;6214993;23;20081;-73
2022/05/05 09:57:47;;;;;;;0.20;0.20;;;;;;;23.12;36.59;100482.63;6192641;23;20021;-72
2022/05/05 10:05:51;;;;;;;0.10;0.10;;;;;;;22.84;37.46;100484.03;6216432;23;20020;-71
2022/05/05 10:08:40;;;;;;;0.20;0.20;;;;;;;23.06;37.72;100480.72;6214636;23;20507;-70
2022/05/05 10:11:07;;;;;;;0.10;0.10;;;;;;;23.27;37.39;100468.84;6214789;23;20008;-72
2022/05/05 10:13:37;;;;;;;0.10;0.10;;;;;;;23.45;37.03;100471.25;6215429;23;20448;-71
2022/05/05 10:16:06;;;;;;;0.10;0.10;;;;;;;23.63;36.25;100462.31;6214361;23;20005;-70
2022/05/05 10:18:38;;;;;;;0.10;0.10;;;;;;;23.40;36.83;100452.72;6214321;23;20008;-71
2022/05/05 10:21:19;;;;;;;0.10;0.10;;;;;;;23.18;35.79;100457.34;6214326;23;20004;-71
2022/05/05 10:23:59;;;;;;;0.10;0.10;;;;;;;23.36;36.08;100452.00;6213864;23;20013;-70
2022/05/05 10:26:26;;;;;;;0.20;0.20;;;;;;;22.78;36.20;100459.47;6214042;23;20001;-70
2022/05/05 10:28:52;;;;;;;0.10;0.10;;;;;;;22.76;36.13;100448.56;6214544;23;20011;-70
2022/05/05 10:31:30;;;;;;;0.10;0.10;;;;;;;23.16;36.24;100434.25;6213525;23;20020;-70
2022/05/05 10:34:01;;;;;;;0.10;0.10;;;;;;;23.31;35.31;100426.97;6213455;23;20013;-70
2022/05/05 10:36:28;;;;;;;0.20;0.20;;;;;;;23.80;34.82;100432.59;6214594;23;20015;-71
2022/05/05 10:38:55;;;;;;;0.10;0.10;;;;;;;24.16;33.61;100428.75;6214078;23;20008;-71
2022/05/05 10:41:40;;;;;;;0.20;0.20;;;;;;;24.60;31.67;100424.22;6214007;23;20004;-70
2022/05/05 10:44:20;;;;;;;0.10;0.10;;;;;;;24.98;31.41;100415.69;6214435;23;20011;-71
2022/05/05 10:47:02;;;;;;;0.10;0.10;;;;;;;25.06;30.76;100419.91;6214033;23;20004;-71
2022/05/05 10:49:37;;;;;;;0.20;0.20;;;;;;;24.72;31.08;100402.72;6214705;23;20009;-70
2022/05/05 10:52:11;;;;;;;0.10;0.10;;;;;;;24.69;31.67;100418.66;6214176;23;20005;-71
2022/05/05 10:54:43;;;;;;;0.10;0.10;;;;;;;24.57;32.00;100413.75;6214882;23;20295;-70
2022/05/05 10:57:27;;;;;;;0.10;0.10;;;;;;;24.40;32.36;100413.06;6214411;23;20429;-71
2022/05/05 11:00:18;;;;;;;0.10;0.10;;;;;;;24.99;31.82;100417.28;6214863;23;20451;-71
2022/05/05 11:03:02;;;;;;;0.10;0.10;;;;;;;25.20;31.26;100415.03;6214014;23;20005;-72
2022/05/05 11:05:33;;;;;;;0.10;0.10;;;;;;;25.23;30.07;100403.50;6214147;23;20012;-72
2022/05/05 11:08:17;;;;;;;0.10;0.10;;;;;;;24.50;31.34;100411.94;6214123;23;20001;-71
2022/05/05 11:13:44;;;;;;;0.10;0.10;;;;;;;23.97;30.29;100402.91;6216280;23;20095;-72
2022/05/05 11:22:09;;;;;;;0.10;0.10;;;;;;;23.77;32.78;100396.59;6217706;23;20016;-72
2022/05/05 11:24:36;;;;;;;0.10;0.10;;;;;;;24.24;31.39;100393.22;6216243;23;20008;-70
2022/05/05 11:27:02;;;;;;;0.10;0.10;;;;;;;24.76;30.11;100395.66;6216062;23;20036;-72
2022/05/05 11:29:31;;;;;;;0.10;0.10;;;;;;;24.92;30.47;100397.56;6218077;23;20004;-71
2022/05/05 11:31:58;;;;;;;0.10;0.10;;;;;;;24.33;29.51;100407.53;6221132;23;20012;-71
2022/05/05 11:34:32;;;;;;;0.10;0.10;;;;;;;24.54;28.99;100397.59;6221476;23;20004;-71
2022/05/05 11:36:59;;;;;;;0.10;0.10;;;;;;;24.25;29.13;100397.66;6221785;23;20425;-71
2022/05/05 11:39:25;;;;;;;0.13;0.13;;;;;;;24.44;29.92;100393.03;6221350;23;20008;-72
2022/05/05 11:42:04;;;;;;;0.10;0.10;;;;;;;24.59;29.60;100396.22;6221655;23;20325;-70
2022/05/05 11:44:33;;;;;;;0.10;0.10;;;;;;;24.55;29.87;100385.78;6247617;23;20060;-71
2022/05/05 11:47:10;;;;;;;0.10;0.10;;;;;;;24.43;29.08;100400.75;6220921;23;20011;-71
2022/05/05 11:49:35;;;;;;;0.10;0.10;;;;;;;24.45;28.97;100395.44;6221041;23;20012;-71
2022/05/05 11:52:02;;;;;;;0.20;0.20;;;;;;;24.49;29.32;100395.31;6221167;23;20008;-71
2022/05/05 11:54:32;;;;;;;0.10;0.10;;;;;;;23.93;29.31;100399.38;6247537;23;20010;-70
2022/05/05 11:56:59;;;;;;;0.10;0.10;;;;;;;24.09;28.53;100395.66;6220986;23;20009;-71
2022/05/05 12:02:19;;;;;;;0.10;0.10;;;;;;;24.11;29.45;100386.69;6247477;23;20023;-71
2022/05/05 12:04:52;;;;;;;0.10;0.10;;;;;;;24.29;29.45;100379.22;6221243;23;20008;-71
2022/05/05 12:07:20;;;;;;;0.10;0.10;;;;;;;24.31;28.72;100378.78;6221381;23;20023;-71
2022/05/05 12:09:48;;;;;;;0.20;0.20;;;;;;;24.62;28.80;100372.56;6221366;23;20122;-72
2022/05/05 12:12:19;;;;;;;0.10;0.10;;;;;;;24.67;28.00;100369.94;6220592;23;20008;-71
2022/05/05 12:14:47;;;;;;;0.10;0.10;;;;;;;24.85;28.00;100366.53;6220428;23;20015;-71
2022/05/05 12:17:21;;;;;;;0.20;0.20;;;;;;;25.18;27.48;100360.56;6221307;23;20425;-70
2022/05/05 12:19:48;;;;;;;0.10;0.10;;;;;;;25.65;27.10;100360.53;6220839;23;20421;-71
2022/05/05 12:22:19;;;;;;;0.10;0.10;;;;;;;25.63;27.42;100353.72;6220545;23;20091;-71